createdAt,value
2023-03-26T00:00:48.489Z,977.85
2023-03-26T00:01:48.508Z,977.75
2023-03-26T00:02:48.515Z,977.81
2023-03-26T00:03:48.433Z,977.84
2023-03-26T00:04:48.450Z,977.85
2023-03-26T00:05:48.464Z,977.86
2023-03-26T00:06:48.417Z,977.88
2023-03-26T00:07:48.424Z,977.91
2023-03-26T00:08:48.381Z,977.90
2023-03-26T00:09:48.380Z,977.88
2023-03-26T00:10:48.360Z,977.88
2023-03-26T00:11:48.375Z,977.85
2023-03-26T00:12:48.342Z,977.92
2023-03-26T00:13:48.362Z,977.85
2023-03-26T00:14:48.330Z,977.84
2023-03-26T00:15:48.354Z,977.83
2023-03-26T00:16:48.320Z,977.89
2023-03-26T00:17:48.336Z,977.91
2023-03-26T00:18:48.315Z,977.89
2023-03-26T00:19:48.283Z,977.84
2023-03-26T00:20:48.275Z,977.82
2023-03-26T00:21:48.261Z,977.83
2023-03-26T00:22:48.243Z,977.82
2023-03-26T00:23:48.227Z,977.83
2023-03-26T00:24:48.270Z,977.81
2023-03-26T00:25:49.524Z,977.83
2023-03-26T00:26:48.202Z,977.82
2023-03-26T00:27:48.185Z,977.87
2023-03-26T00:28:48.184Z,977.90
2023-03-26T00:29:48.204Z,977.85
2023-03-26T00:30:48.222Z,977.91
2023-03-26T00:31:48.147Z,977.92
2023-03-26T00:32:53.303Z,977.90
2023-03-26T00:33:48.130Z,977.90
2023-03-26T00:34:48.144Z,977.91
2023-03-26T00:35:48.109Z,977.89
2023-03-26T00:36:48.126Z,977.92
2023-03-26T00:37:48.083Z,977.94
2023-03-26T00:38:48.109Z,977.95
2023-03-26T00:39:48.090Z,977.95
2023-03-26T00:40:48.097Z,977.94
2023-03-26T00:41:48.083Z,977.95
2023-03-26T00:42:48.048Z,977.91
2023-03-26T00:43:48.044Z,977.95
2023-03-26T00:44:48.043Z,977.93
2023-03-26T00:45:48.045Z,977.98
2023-03-26T00:46:48.013Z,977.95
2023-03-26T00:47:48.087Z,977.98
2023-03-26T00:48:47.991Z,977.96
2023-03-26T00:49:47.966Z,977.93
2023-03-26T00:50:47.954Z,977.93
2023-03-26T00:51:47.942Z,977.95
2023-03-26T00:52:47.956Z,977.95
2023-03-26T00:53:47.947Z,977.98
2023-03-26T00:54:47.933Z,977.98
2023-03-26T00:55:47.920Z,977.99
2023-03-26T00:56:47.960Z,977.96
2023-03-26T00:57:47.903Z,977.97
2023-03-26T00:58:47.900Z,977.98
2023-03-26T00:59:47.878Z,977.99
2023-03-26T01:00:47.877Z,977.97
2023-03-26T01:01:47.902Z,977.96
2023-03-26T01:02:47.929Z,977.99
2023-03-26T01:04:04.776Z,977.98
2023-03-26T01:04:47.977Z,977.97
2023-03-26T01:05:47.819Z,977.98
2023-03-26T01:06:48.121Z,977.94
2023-03-26T01:07:47.827Z,977.96
2023-03-26T01:08:48.014Z,977.95
2023-03-26T01:09:47.784Z,977.93
2023-03-26T01:10:47.762Z,977.94
2023-03-26T01:11:47.804Z,977.90
2023-03-26T01:12:47.767Z,977.90
2023-03-26T01:13:47.752Z,977.89
2023-03-26T01:14:47.755Z,977.89
2023-03-26T01:15:47.715Z,977.90
2023-03-26T01:16:47.784Z,977.88
2023-03-26T01:17:47.743Z,977.89
2023-03-26T01:18:47.691Z,977.88
2023-03-26T01:19:47.673Z,977.86
2023-03-26T01:20:47.693Z,977.88
2023-03-26T01:21:47.713Z,977.86
2023-03-26T01:22:47.638Z,977.85
2023-03-26T01:23:47.680Z,977.83
2023-03-26T01:24:47.638Z,977.83
2023-03-26T01:25:47.655Z,977.84
2023-03-26T01:26:47.606Z,977.83
2023-03-26T01:27:47.600Z,977.84
2023-03-26T01:28:47.582Z,977.81
2023-03-26T01:29:47.581Z,977.79
2023-03-26T01:30:47.582Z,977.81
2023-03-26T01:31:47.569Z,977.79
2023-03-26T01:32:47.688Z,977.78
2023-03-26T01:33:47.551Z,977.78
2023-03-26T01:34:47.540Z,977.75
2023-03-26T01:35:47.648Z,977.76
2023-03-26T01:36:47.511Z,977.76
2023-03-26T01:37:47.486Z,977.78
2023-03-26T01:38:47.494Z,977.80
2023-03-26T01:39:47.478Z,977.79
2023-03-26T01:40:47.463Z,977.77
2023-03-26T01:41:47.470Z,977.81
2023-03-26T01:42:47.438Z,977.81
2023-03-26T01:43:47.441Z,977.82
2023-03-26T01:44:47.409Z,977.74
2023-03-26T01:45:47.416Z,977.73
2023-03-26T01:46:47.415Z,977.72
2023-03-26T01:47:47.413Z,977.72
2023-03-26T01:48:47.395Z,977.68
2023-03-26T01:49:47.375Z,977.68
2023-03-26T01:50:47.385Z,977.65
2023-03-26T01:51:47.347Z,977.65
2023-03-26T01:52:47.336Z,977.65
2023-03-26T01:53:47.383Z,977.65
2023-03-26T01:54:47.334Z,977.64
2023-03-26T01:55:47.305Z,977.67
2023-03-26T01:56:47.359Z,977.65
2023-03-26T01:57:47.282Z,977.65
2023-03-26T01:58:47.267Z,977.71
2023-03-26T01:59:47.311Z,977.68
2023-03-26T02:00:47.259Z,977.67
2023-03-26T02:01:47.286Z,977.66
2023-03-26T02:02:47.516Z,977.64
2023-03-26T02:03:47.261Z,977.64
2023-03-26T02:04:47.232Z,977.59
2023-03-26T02:05:47.257Z,977.61
2023-03-26T02:06:47.212Z,977.61
2023-03-26T02:07:47.178Z,977.58
2023-03-26T02:08:47.167Z,977.58
2023-03-26T02:09:47.148Z,977.58
2023-03-26T02:10:47.192Z,977.59
2023-03-26T02:11:47.141Z,977.58
2023-03-26T02:12:47.135Z,977.57
2023-03-26T02:13:47.115Z,977.58
2023-03-26T02:14:47.127Z,977.58
2023-03-26T02:15:47.135Z,977.54
2023-03-26T02:16:47.300Z,977.49
2023-03-26T02:17:47.165Z,977.50
2023-03-26T02:18:47.089Z,977.51
2023-03-26T02:19:47.086Z,977.46
2023-03-26T02:20:47.061Z,977.44
2023-03-26T02:21:47.043Z,977.42
2023-03-26T02:22:47.423Z,977.41
2023-03-26T02:23:47.264Z,977.40
2023-03-26T02:24:47.018Z,977.38
2023-03-26T02:25:46.990Z,977.37
2023-03-26T02:26:47.010Z,977.37
2023-03-26T02:27:46.989Z,977.34
2023-03-26T02:28:46.999Z,977.33
2023-03-26T02:29:46.959Z,977.35
2023-03-26T02:30:46.955Z,977.35
2023-03-26T02:31:47.021Z,977.32
2023-03-26T02:32:46.967Z,977.30
2023-03-26T02:33:46.915Z,977.31
2023-03-26T02:34:46.950Z,977.29
2023-03-26T02:35:46.969Z,977.30
2023-03-26T02:36:46.959Z,977.30
2023-03-26T02:37:46.913Z,977.31
2023-03-26T02:38:46.881Z,977.31
2023-03-26T02:39:46.875Z,977.31
2023-03-26T02:40:47.101Z,977.31
2023-03-26T02:41:46.835Z,977.31
2023-03-26T02:42:46.830Z,977.33
2023-03-26T02:43:46.813Z,977.31
2023-03-26T02:44:46.816Z,977.32
2023-03-26T02:45:46.896Z,977.32
2023-03-26T02:46:46.808Z,977.32
2023-03-26T02:47:46.793Z,977.32
2023-03-26T02:48:46.792Z,977.34
2023-03-26T02:49:46.748Z,977.35
2023-03-26T02:50:46.739Z,977.34
2023-03-26T02:51:46.780Z,977.33
2023-03-26T02:52:46.730Z,977.34
2023-03-26T02:53:46.711Z,977.34
2023-03-26T02:54:46.713Z,977.33
2023-03-26T02:55:46.718Z,977.30
2023-03-26T02:56:46.725Z,977.28
2023-03-26T02:57:46.715Z,977.27
2023-03-26T02:58:46.694Z,977.27
2023-03-26T02:59:46.668Z,977.24
2023-03-26T03:00:46.701Z,977.24
2023-03-26T03:01:46.651Z,977.22
2023-03-26T03:02:46.707Z,977.20
2023-03-26T03:03:46.634Z,977.19
2023-03-26T03:04:46.601Z,977.16
2023-03-26T03:05:46.593Z,977.18
2023-03-26T03:06:46.600Z,977.14
2023-03-26T03:07:46.648Z,977.14
2023-03-26T03:08:46.592Z,977.12
2023-03-26T03:09:46.578Z,977.07
2023-03-26T03:10:46.584Z,977.05
2023-03-26T03:11:46.595Z,977.04
2023-03-26T03:12:46.539Z,977.04
2023-03-26T03:13:46.638Z,977.05
2023-03-26T03:14:46.528Z,977.06
2023-03-26T03:15:46.510Z,977.03
2023-03-26T03:16:46.518Z,977.04
2023-03-26T03:17:46.548Z,977.05
2023-03-26T03:18:46.454Z,977.06
2023-03-26T03:19:46.456Z,977.06
2023-03-26T03:20:46.445Z,977.07
2023-03-26T03:21:46.481Z,977.04
2023-03-26T03:22:46.447Z,977.05
2023-03-26T03:23:46.405Z,977.04
2023-03-26T03:24:46.408Z,977.04
2023-03-26T03:25:46.405Z,977.02
2023-03-26T03:26:46.385Z,977.00
2023-03-26T03:27:46.376Z,977.00
2023-03-26T03:28:46.422Z,977.01
2023-03-26T03:29:46.366Z,977.03
2023-03-26T03:30:46.387Z,977.03
2023-03-26T03:31:46.340Z,977.04
2023-03-26T03:32:46.424Z,977.05
2023-03-26T03:33:46.511Z,977.06
2023-03-26T03:34:46.310Z,977.03
2023-03-26T03:35:46.355Z,977.01
2023-03-26T03:36:46.284Z,977.01
2023-03-26T03:37:46.281Z,977.01
2023-03-26T03:38:46.307Z,977.02
2023-03-26T03:39:46.379Z,977.00
2023-03-26T03:40:46.259Z,976.99
2023-03-26T03:41:46.248Z,976.99
2023-03-26T03:42:46.222Z,976.96
2023-03-26T03:43:46.282Z,976.95
2023-03-26T03:44:46.259Z,976.95
2023-03-26T03:45:46.242Z,976.95
2023-03-26T03:46:46.235Z,976.96
2023-03-26T03:47:46.239Z,976.96
2023-03-26T03:48:46.155Z,976.94
2023-03-26T03:49:46.145Z,976.94
2023-03-26T03:50:46.165Z,976.94
2023-03-26T03:51:46.174Z,976.93
2023-03-26T03:52:46.147Z,976.92
2023-03-26T03:53:46.128Z,976.90
2023-03-26T03:54:46.117Z,976.90
2023-03-26T03:55:46.124Z,976.88
2023-03-26T03:56:46.117Z,976.89
2023-03-26T03:57:46.087Z,976.89
2023-03-26T03:58:46.056Z,976.88
2023-03-26T03:59:47.590Z,976.88
2023-03-26T04:00:46.073Z,976.88
2023-03-26T04:01:46.034Z,976.85
2023-03-26T04:02:46.157Z,976.86
2023-03-26T04:03:46.516Z,976.85
2023-03-26T04:04:46.015Z,976.85
2023-03-26T04:05:45.982Z,976.83
2023-03-26T04:06:46.028Z,976.81
2023-03-26T04:07:45.978Z,976.80
2023-03-26T04:08:45.978Z,976.80
2023-03-26T04:09:45.974Z,976.77
2023-03-26T04:10:45.940Z,976.77
2023-03-26T04:11:45.956Z,976.75
2023-03-26T04:12:45.920Z,976.75
2023-03-26T04:13:45.899Z,976.75
2023-03-26T04:14:45.925Z,976.74
2023-03-26T04:15:45.926Z,976.72
2023-03-26T04:16:45.887Z,976.72
2023-03-26T04:17:45.934Z,976.70
2023-03-26T04:18:45.875Z,976.69
2023-03-26T04:19:45.865Z,976.68
2023-03-26T04:20:45.844Z,976.67
2023-03-26T04:21:45.847Z,976.68
2023-03-26T04:22:45.850Z,976.67
2023-03-26T04:23:45.802Z,976.69
2023-03-26T04:24:45.800Z,976.69
2023-03-26T04:25:45.768Z,976.68
2023-03-26T04:26:45.771Z,976.65
2023-03-26T04:27:45.776Z,976.64
2023-03-26T04:28:45.783Z,976.61
2023-03-26T04:29:45.753Z,976.59
2023-03-26T04:30:45.759Z,976.59
2023-03-26T04:31:45.839Z,976.57
2023-03-26T04:32:45.785Z,976.56
2023-03-26T04:33:45.720Z,976.57
2023-03-26T04:34:45.721Z,976.57
2023-03-26T04:35:45.774Z,976.57
2023-03-26T04:36:45.705Z,976.57
2023-03-26T04:37:45.682Z,976.55
2023-03-26T04:38:45.690Z,976.55
2023-03-26T04:39:45.657Z,976.53
2023-03-26T04:40:45.633Z,976.52
2023-03-26T04:41:45.621Z,976.52
2023-03-26T04:42:45.650Z,976.53
2023-03-26T04:43:45.616Z,976.53
2023-03-26T04:44:45.619Z,976.56
2023-03-26T04:45:45.642Z,976.54
2023-03-26T04:46:45.597Z,976.53
2023-03-26T04:47:45.611Z,976.56
2023-03-26T04:48:45.557Z,976.56
2023-03-26T04:49:45.547Z,976.54
2023-03-26T04:50:45.553Z,976.55
2023-03-26T04:51:45.552Z,976.51
2023-03-26T04:52:45.680Z,976.50
2023-03-26T04:53:45.498Z,976.48
2023-03-26T04:54:45.550Z,976.46
2023-03-26T04:55:45.497Z,976.47
2023-03-26T04:56:45.522Z,976.45
2023-03-26T04:57:45.481Z,976.46
2023-03-26T04:58:45.482Z,976.43
2023-03-26T04:59:45.484Z,976.43
2023-03-26T05:00:45.494Z,976.43
2023-03-26T05:01:45.515Z,976.42
2023-03-26T05:02:45.491Z,976.40
2023-03-26T05:03:45.450Z,976.38
2023-03-26T05:04:45.623Z,976.37
2023-03-26T05:05:45.380Z,976.36
2023-03-26T05:06:45.365Z,976.34
2023-03-26T05:07:45.387Z,976.33
2023-03-26T05:08:45.347Z,976.31
2023-03-26T05:09:45.344Z,976.28
2023-03-26T05:10:45.337Z,976.26
2023-03-26T05:11:45.329Z,976.23
2023-03-26T05:12:45.356Z,976.22
2023-03-26T05:13:45.312Z,976.22
2023-03-26T05:14:45.324Z,976.20
2023-03-26T05:15:45.305Z,976.20
2023-03-26T05:16:45.288Z,976.18
2023-03-26T05:17:45.318Z,976.17
2023-03-26T05:18:45.244Z,976.16
2023-03-26T05:19:45.242Z,976.16
2023-03-26T05:20:45.249Z,976.14
2023-03-26T05:21:45.217Z,976.12
2023-03-26T05:22:45.219Z,976.10
2023-03-26T05:23:45.200Z,976.08
2023-03-26T05:24:45.173Z,976.08
2023-03-26T05:25:45.205Z,976.05
2023-03-26T05:26:45.175Z,976.03
2023-03-26T05:27:45.167Z,976.01
2023-03-26T05:28:45.181Z,975.99
2023-03-26T05:29:45.238Z,975.97
2023-03-26T05:30:45.168Z,975.96
2023-03-26T05:31:45.148Z,975.94
2023-03-26T05:32:45.200Z,975.92
2023-03-26T05:33:45.285Z,975.91
2023-03-26T05:34:45.174Z,975.89
2023-03-26T05:35:45.102Z,975.88
2023-03-26T05:36:45.072Z,975.86
2023-03-26T05:37:45.470Z,975.86
2023-03-26T05:38:45.044Z,975.85
2023-03-26T05:39:45.133Z,975.84
2023-03-26T05:40:45.077Z,975.82
2023-03-26T05:41:45.023Z,975.80
2023-03-26T05:42:45.126Z,975.79
2023-03-26T05:43:45.087Z,975.77
2023-03-26T05:44:45.021Z,975.76
2023-03-26T05:45:45.041Z,975.75
2023-03-26T05:46:44.995Z,975.72
2023-03-26T05:47:44.965Z,975.70
2023-03-26T05:48:44.987Z,975.67
2023-03-26T05:49:44.929Z,975.64
2023-03-26T05:50:44.935Z,975.62
2023-03-26T05:51:44.935Z,975.60
2023-03-26T05:52:44.935Z,975.59
2023-03-26T05:53:44.911Z,975.59
2023-03-26T05:54:44.955Z,975.59
2023-03-26T05:55:44.884Z,975.58
2023-03-26T05:56:44.892Z,975.59
2023-03-26T05:57:44.869Z,975.58
2023-03-26T05:58:44.840Z,975.58
2023-03-26T05:59:44.828Z,975.57
2023-03-26T06:00:44.849Z,975.54
2023-03-26T06:01:44.856Z,975.51
2023-03-26T06:02:44.839Z,975.47
2023-03-26T06:03:44.977Z,975.43
2023-03-26T06:04:44.877Z,975.41
2023-03-26T06:05:44.798Z,975.39
2023-03-26T06:06:44.793Z,975.37
2023-03-26T06:07:44.772Z,975.38
2023-03-26T06:08:44.744Z,975.37
2023-03-26T06:09:44.750Z,975.35
2023-03-26T06:10:44.734Z,975.34
2023-03-26T06:11:44.760Z,975.33
2023-03-26T06:12:44.707Z,975.32
2023-03-26T06:13:44.712Z,975.29
2023-03-26T06:14:44.674Z,975.27
2023-03-26T06:15:44.686Z,975.26
2023-03-26T06:16:44.666Z,975.24
2023-03-26T06:17:44.714Z,975.24
2023-03-26T06:18:44.686Z,975.23
2023-03-26T06:19:44.652Z,975.23
2023-03-26T06:20:44.639Z,975.22
2023-03-26T06:21:44.628Z,975.22
2023-03-26T06:22:44.627Z,975.23
2023-03-26T06:23:44.594Z,975.22
2023-03-26T06:24:44.581Z,975.21
2023-03-26T06:25:44.560Z,975.19
2023-03-26T06:26:44.547Z,975.17
2023-03-26T06:27:44.544Z,975.15
2023-03-26T06:28:44.597Z,975.13
2023-03-26T06:29:44.535Z,975.11
2023-03-26T06:30:44.537Z,975.07
2023-03-26T06:31:44.551Z,975.05
2023-03-26T06:32:44.573Z,975.03
2023-03-26T06:33:44.517Z,975.01
2023-03-26T06:34:44.483Z,974.99
2023-03-26T06:35:44.509Z,974.97
2023-03-26T06:36:44.469Z,974.96
2023-03-26T06:37:44.457Z,974.95
2023-03-26T06:38:44.673Z,974.94
2023-03-26T06:39:44.454Z,974.93
2023-03-26T06:40:44.407Z,974.92
2023-03-26T06:41:44.417Z,974.93
2023-03-26T06:43:07.650Z,974.92
2023-03-26T06:43:44.390Z,974.92
2023-03-26T06:44:44.391Z,974.91
2023-03-26T06:45:44.380Z,974.90
2023-03-26T06:46:44.371Z,974.89
2023-03-26T06:47:44.428Z,974.91
2023-03-26T06:48:44.359Z,974.92
2023-03-26T06:49:45.383Z,974.93
2023-03-26T06:50:44.337Z,974.94
2023-03-26T06:51:44.318Z,974.93
2023-03-26T06:52:44.293Z,974.93
2023-03-26T06:53:44.314Z,974.93
2023-03-26T06:54:44.290Z,974.91
2023-03-26T06:55:44.279Z,974.90
2023-03-26T06:56:44.360Z,974.87
2023-03-26T06:57:44.271Z,974.84
2023-03-26T06:58:44.267Z,974.83
2023-03-26T06:59:44.267Z,974.82
2023-03-26T07:00:44.254Z,974.80
2023-03-26T07:01:46.444Z,974.81
2023-03-26T07:02:44.251Z,974.81
2023-03-26T07:03:44.212Z,974.82
2023-03-26T07:04:44.679Z,974.83
2023-03-26T07:05:44.176Z,974.85
2023-03-26T07:06:44.154Z,974.87
2023-03-26T07:07:46.486Z,974.87
2023-03-26T07:08:44.146Z,974.88
2023-03-26T07:09:44.123Z,974.87
2023-03-26T07:10:44.167Z,974.85
2023-03-26T07:11:44.135Z,974.84
2023-03-26T07:12:44.118Z,974.83
2023-03-26T07:13:44.094Z,974.83
2023-03-26T07:14:44.098Z,974.82
2023-03-26T07:15:44.062Z,974.79
2023-03-26T07:16:44.128Z,974.78
2023-03-26T07:17:44.106Z,974.77
2023-03-26T07:18:44.047Z,974.77
2023-03-26T07:19:44.038Z,974.76
2023-03-26T07:20:44.024Z,974.76
2023-03-26T07:21:44.029Z,974.74
2023-03-26T07:22:44.045Z,974.72
2023-03-26T07:23:43.993Z,974.71
2023-03-26T07:24:44.137Z,974.70
2023-03-26T07:25:43.973Z,974.71
2023-03-26T07:26:43.973Z,974.69
2023-03-26T07:27:43.965Z,974.67
2023-03-26T07:28:43.977Z,974.66
2023-03-26T07:29:43.953Z,974.65
2023-03-26T07:30:43.921Z,974.64
2023-03-26T07:31:43.964Z,974.63
2023-03-26T07:32:43.954Z,974.62
2023-03-26T07:33:43.905Z,974.62
2023-03-26T07:34:43.896Z,974.60
2023-03-26T07:35:43.922Z,974.58
2023-03-26T07:36:43.879Z,974.55
2023-03-26T07:37:44.104Z,974.53
2023-03-26T07:38:43.835Z,974.49
2023-03-26T07:39:43.851Z,974.45
2023-03-26T07:40:43.817Z,974.41
2023-03-26T07:41:43.814Z,974.38
2023-03-26T07:42:43.909Z,974.35
2023-03-26T07:43:43.816Z,974.34
2023-03-26T07:44:43.808Z,974.34
2023-03-26T07:45:43.833Z,974.37
2023-03-26T07:46:43.758Z,974.38
2023-03-26T07:47:43.786Z,974.37
2023-03-26T07:48:43.801Z,974.35
2023-03-26T07:49:43.733Z,974.34
2023-03-26T07:50:43.698Z,974.33
2023-03-26T07:51:43.712Z,974.33
2023-03-26T07:52:43.704Z,974.29
2023-03-26T07:53:43.678Z,974.27
2023-03-26T07:54:43.705Z,974.27
2023-03-26T07:55:43.678Z,974.27
2023-03-26T07:56:43.782Z,974.26
2023-03-26T07:57:43.713Z,974.24
2023-03-26T07:58:43.631Z,974.23
2023-03-26T07:59:43.625Z,974.22
2023-03-26T08:00:43.611Z,974.21
2023-03-26T08:01:43.617Z,974.20
2023-03-26T08:02:43.669Z,974.20
2023-03-26T08:03:43.689Z,974.20
2023-03-26T08:04:43.662Z,974.16
2023-03-26T08:05:43.561Z,974.15
2023-03-26T08:06:43.563Z,974.15
2023-03-26T08:07:43.563Z,974.15
2023-03-26T08:08:43.599Z,974.13
2023-03-26T08:09:43.551Z,974.13
2023-03-26T08:10:43.532Z,974.11
2023-03-26T08:11:43.523Z,974.09
2023-03-26T08:12:43.873Z,974.08
2023-03-26T08:13:43.505Z,974.07
2023-03-26T08:14:43.488Z,974.06
2023-03-26T08:15:43.503Z,974.05
2023-03-26T08:16:43.447Z,974.05
2023-03-26T08:17:43.468Z,974.04
2023-03-26T08:18:43.428Z,974.04
2023-03-26T08:19:43.448Z,974.04
2023-03-26T08:20:43.409Z,974.03
2023-03-26T08:21:43.415Z,974.01
2023-03-26T08:22:43.435Z,974.01
2023-03-26T08:23:50.994Z,974.01
2023-03-26T08:24:43.408Z,974.03
2023-03-26T08:25:43.374Z,974.03
2023-03-26T08:26:43.338Z,974.02
2023-03-26T08:27:43.362Z,974.02
2023-03-26T08:28:43.319Z,974.01
2023-03-26T08:29:43.326Z,974.02
2023-03-26T08:30:43.390Z,974.02
2023-03-26T08:31:43.321Z,974.02
2023-03-26T08:32:43.289Z,974.01
2023-03-26T08:33:43.288Z,973.99
2023-03-26T08:34:43.273Z,973.97
2023-03-26T08:35:43.298Z,973.96
2023-03-26T08:36:43.295Z,973.94
2023-03-26T08:37:43.251Z,973.93
2023-03-26T08:38:45.045Z,973.91
2023-03-26T08:39:43.233Z,973.90
2023-03-26T08:40:43.194Z,973.90
2023-03-26T08:41:43.244Z,973.89
2023-03-26T08:42:43.235Z,973.88
2023-03-26T08:43:43.176Z,973.86
2023-03-26T08:44:43.166Z,973.83
2023-03-26T08:45:43.169Z,973.81
2023-03-26T08:46:43.197Z,973.79
2023-03-26T08:47:43.171Z,973.77
2023-03-26T08:48:43.174Z,973.75
2023-03-26T08:49:43.140Z,973.73
2023-03-26T08:50:43.130Z,973.71
2023-03-26T08:51:43.120Z,973.69
2023-03-26T08:52:43.120Z,973.70
2023-03-26T08:53:43.087Z,973.70
2023-03-26T08:54:43.080Z,973.70
2023-03-26T08:55:43.070Z,973.70
2023-03-26T08:56:43.061Z,973.69
2023-03-26T08:57:43.081Z,973.68
2023-03-26T08:58:43.034Z,973.66
2023-03-26T08:59:43.031Z,973.65
2023-03-26T09:00:43.029Z,973.62
2023-03-26T09:01:43.035Z,973.61
2023-03-26T09:02:43.042Z,973.60
2023-03-26T09:03:43.066Z,973.58
2023-03-26T09:04:42.971Z,973.56
2023-03-26T09:05:42.955Z,973.56
2023-03-26T09:06:42.962Z,973.55
2023-03-26T09:07:42.959Z,973.54
2023-03-26T09:08:54.284Z,973.54
2023-03-26T09:09:42.928Z,973.52
2023-03-26T09:10:42.916Z,973.52
2023-03-26T09:11:42.879Z,973.51
2023-03-26T09:12:42.919Z,973.51
2023-03-26T09:13:42.921Z,973.51
2023-03-26T09:14:42.869Z,973.50
2023-03-26T09:15:42.857Z,973.50
2023-03-26T09:16:42.926Z,973.50
2023-03-26T09:17:42.890Z,973.51
2023-03-26T09:18:42.828Z,973.51
2023-03-26T09:19:42.849Z,973.51
2023-03-26T09:20:42.824Z,973.50
2023-03-26T09:21:42.815Z,973.50
2023-03-26T09:22:42.797Z,973.49
2023-03-26T09:23:42.766Z,973.48
2023-03-26T09:24:42.801Z,973.45
2023-03-26T09:25:42.758Z,973.43
2023-03-26T09:26:42.763Z,973.42
2023-03-26T09:27:42.741Z,973.42
2023-03-26T09:28:42.762Z,973.43
2023-03-26T09:29:42.785Z,973.45
2023-03-26T09:30:42.735Z,973.47
2023-03-26T09:31:42.727Z,973.47
2023-03-26T09:32:42.757Z,973.47
2023-03-26T09:33:42.706Z,973.46
2023-03-26T09:34:42.723Z,973.45
2023-03-26T09:35:42.717Z,973.44
2023-03-26T09:36:42.646Z,973.44
2023-03-26T09:37:56.152Z,973.43
2023-03-26T09:38:42.651Z,973.44
2023-03-26T09:39:42.639Z,973.44
2023-03-26T09:40:42.608Z,973.45
2023-03-26T09:41:42.601Z,973.46
2023-03-26T09:42:42.589Z,973.46
2023-03-26T09:43:42.587Z,973.45
2023-03-26T09:44:42.581Z,973.44
2023-03-26T09:45:42.639Z,973.45
2023-03-26T09:46:42.573Z,973.44
2023-03-26T09:47:42.596Z,973.45
2023-03-26T09:48:42.564Z,973.43
2023-03-26T09:49:42.534Z,973.42
2023-03-26T09:50:42.523Z,973.41
2023-03-26T09:51:42.533Z,973.40
2023-03-26T09:52:42.484Z,973.39
2023-03-26T09:53:42.477Z,973.40
2023-03-26T09:54:42.479Z,973.38
2023-03-26T09:55:42.453Z,973.39
2023-03-26T09:56:42.503Z,973.36
2023-03-26T09:57:42.517Z,973.38
2023-03-26T09:58:42.435Z,973.40
2023-03-26T09:59:42.438Z,973.40
2023-03-26T10:00:42.476Z,973.41
2023-03-26T10:01:42.514Z,973.40
2023-03-26T10:02:46.914Z,973.40
2023-03-26T10:03:42.392Z,973.43
2023-03-26T10:04:42.437Z,973.40
2023-03-26T10:05:42.371Z,973.39
2023-03-26T10:06:42.372Z,973.38
2023-03-26T10:07:42.381Z,973.39
2023-03-26T10:08:42.332Z,973.42
2023-03-26T10:09:42.320Z,973.42
2023-03-26T10:10:42.315Z,973.39
2023-03-26T10:11:42.298Z,973.40
2023-03-26T10:12:42.276Z,973.41
2023-03-26T10:13:42.295Z,973.40
2023-03-26T10:14:42.256Z,973.39
2023-03-26T10:15:42.279Z,973.42
2023-03-26T10:16:42.287Z,973.39
2023-03-26T10:17:42.286Z,973.40
2023-03-26T10:18:42.304Z,973.39
2023-03-26T10:19:42.223Z,973.33
2023-03-26T10:20:42.223Z,973.32
2023-03-26T10:21:42.211Z,973.30
2023-03-26T10:22:42.198Z,973.29
2023-03-26T10:23:42.171Z,973.28
2023-03-26T10:24:42.205Z,973.28
2023-03-26T10:25:42.148Z,973.26
2023-03-26T10:26:42.150Z,973.22
2023-03-26T10:27:42.154Z,973.20
2023-03-26T10:28:42.133Z,973.18
2023-03-26T10:29:42.172Z,973.17
2023-03-26T10:30:42.155Z,973.15
2023-03-26T10:31:42.098Z,973.16
2023-03-26T10:32:42.122Z,973.15
2023-03-26T10:33:42.074Z,973.12
2023-03-26T10:34:42.081Z,973.14
2023-03-26T10:35:42.071Z,973.13
2023-03-26T10:36:42.044Z,973.10
2023-03-26T10:37:42.032Z,973.09
2023-03-26T10:38:42.011Z,973.11
2023-03-26T10:39:43.539Z,973.11
2023-03-26T10:40:42.411Z,973.10
2023-03-26T10:41:41.990Z,973.10
2023-03-26T10:42:41.993Z,973.10
2023-03-26T10:43:41.970Z,973.10
2023-03-26T10:44:41.968Z,973.06
2023-03-26T10:45:41.958Z,973.03
2023-03-26T10:46:42.051Z,973.00
2023-03-26T10:47:41.965Z,973.01
2023-03-26T10:48:41.943Z,973.02
2023-03-26T10:49:41.913Z,973.02
2023-03-26T10:50:41.903Z,973.05
2023-03-26T10:51:41.879Z,973.05
2023-03-26T10:52:41.910Z,973.06
2023-03-26T10:53:41.865Z,973.03
2023-03-26T10:54:41.863Z,973.02
2023-03-26T10:55:41.864Z,973.00
2023-03-26T10:56:41.885Z,972.97
2023-03-26T10:57:41.838Z,972.96
2023-03-26T10:58:48.219Z,972.94
2023-03-26T10:59:41.807Z,972.94
2023-03-26T11:00:41.791Z,972.96
2023-03-26T11:01:41.822Z,972.95
2023-03-26T11:02:41.834Z,972.99
2023-03-26T11:03:41.817Z,972.97
2023-03-26T11:04:41.778Z,972.95
2023-03-26T11:05:41.789Z,972.95
2023-03-26T11:06:41.760Z,972.93
2023-03-26T11:07:41.734Z,972.90
2023-03-26T11:08:41.775Z,972.90
2023-03-26T11:09:41.718Z,972.87
2023-03-26T11:10:41.707Z,972.85
2023-03-26T11:11:41.684Z,972.83
2023-03-26T11:12:41.670Z,972.83
2023-03-26T11:13:41.667Z,972.81
2023-03-26T11:14:41.715Z,972.80
2023-03-26T11:15:41.727Z,972.80
2023-03-26T11:16:41.643Z,972.77
2023-03-26T11:17:41.814Z,972.77
2023-03-26T11:18:41.635Z,972.76
2023-03-26T11:19:41.616Z,972.76
2023-03-26T11:20:41.643Z,972.75
2023-03-26T11:21:41.611Z,972.75
2023-03-26T11:22:41.583Z,972.73
2023-03-26T11:23:41.573Z,972.72
2023-03-26T11:24:41.578Z,972.73
2023-03-26T11:25:41.568Z,972.72
2023-03-26T11:26:41.800Z,972.71
2023-03-26T11:27:41.524Z,972.73
2023-03-26T11:28:41.537Z,972.76
2023-03-26T11:29:41.533Z,972.76
2023-03-26T11:30:41.500Z,972.78
2023-03-26T11:31:41.551Z,972.75
2023-03-26T11:32:41.540Z,972.72
2023-03-26T11:33:45.536Z,972.73
2023-03-26T11:34:41.476Z,972.71
2023-03-26T11:35:41.857Z,972.66
2023-03-26T11:36:41.446Z,972.67
2023-03-26T11:37:41.469Z,972.64
2023-03-26T11:38:41.425Z,972.63
2023-03-26T11:39:41.398Z,972.59
2023-03-26T11:40:41.412Z,972.57
2023-03-26T11:41:41.383Z,972.59
2023-03-26T11:42:41.372Z,972.53
2023-03-26T11:43:41.616Z,972.52
2023-03-26T11:44:41.388Z,972.52
2023-03-26T11:45:41.369Z,972.50
2023-03-26T11:46:41.423Z,972.47
2023-03-26T11:47:41.345Z,972.47
2023-03-26T11:48:41.342Z,972.46
2023-03-26T11:49:41.338Z,972.43
2023-03-26T11:50:41.374Z,972.42
2023-03-26T11:51:41.304Z,972.39
2023-03-26T11:52:41.275Z,972.38
2023-03-26T11:53:41.281Z,972.39
2023-03-26T11:54:41.264Z,972.37
2023-03-26T11:55:41.280Z,972.38
2023-03-26T11:56:41.348Z,972.38
2023-03-26T11:57:41.287Z,972.37
2023-03-26T11:58:41.203Z,972.35
2023-03-26T11:59:53.048Z,972.34
2023-03-26T12:00:41.200Z,972.35
2023-03-26T12:01:41.237Z,972.36
2023-03-26T12:02:41.411Z,972.32
2023-03-26T12:03:41.174Z,972.31
2023-03-26T12:04:41.164Z,972.30
2023-03-26T12:05:41.133Z,972.32
2023-03-26T12:06:41.138Z,972.33
2023-03-26T12:07:41.173Z,972.31
2023-03-26T12:08:41.129Z,972.30
2023-03-26T12:09:41.100Z,972.30
2023-03-26T12:10:41.103Z,972.31
2023-03-26T12:11:41.091Z,972.32
2023-03-26T12:12:41.109Z,972.32
2023-03-26T12:13:41.096Z,972.30
2023-03-26T12:14:41.072Z,972.29
2023-03-26T12:15:41.030Z,972.27
2023-03-26T12:16:41.040Z,972.23
2023-03-26T12:17:41.023Z,972.21
2023-03-26T12:18:41.051Z,972.19
2023-03-26T12:19:41.017Z,972.16
2023-03-26T12:20:40.982Z,972.15
2023-03-26T12:21:40.988Z,972.15
2023-03-26T12:22:42.337Z,972.13
2023-03-26T12:23:40.963Z,972.11
2023-03-26T12:24:40.965Z,972.08
2023-03-26T12:25:40.971Z,972.03
2023-03-26T12:26:40.933Z,972.00
2023-03-26T12:27:40.922Z,971.98
2023-03-26T12:28:42.603Z,971.97